sensor_id;sensor_type;location;lat;lon;timestamp;temperature;humidity
1123;DHT22;548;48.778;9.252;2023-08-08T00:01:52;14.90;99.90
1123;DHT22;548;48.778;9.252;2023-08-08T00:04:19;14.80;99.90
1123;DHT22;548;48.778;9.252;2023-08-08T00:06:48;14.70;99.90
1123;DHT22;548;48.778;9.252;2023-08-08T00:09:16;14.60;99.90
1123;DHT22;548;48.778;9.252;2023-08-08T00:11:43;14.60;99.90
1123;DHT22;548;48.778;9.252;2023-08-08T00:14:10;14.60;99.90
1123;DHT22;548;48.778;9.252;2023-08-08T00:16:36;14.60;99.90
1123;DHT22;548;48.778;9.252;2023-08-08T00:19:03;14.70;99.90
1123;DHT22;548;48.778;9.252;2023-08-08T00:21:30;14.70;99.90
1123;DHT22;548;48.778;9.252;2023-08-08T00:23:57;14.70;99.90
1123;DHT22;548;48.778;9.252;2023-08-08T00:26:29;14.70;99.90
1123;DHT22;548;48.778;9.252;2023-08-08T00:28:56;14.70;99.90
1123;DHT22;548;48.778;9.252;2023-08-08T00:31:23;14.70;99.90
1123;DHT22;548;48.778;9.252;2023-08-08T00:33:50;14.80;99.90
1123;DHT22;548;48.778;9.252;2023-08-08T00:36:19;14.80;99.90
1123;DHT22;548;48.778;9.252;2023-08-08T00:38:46;14.80;99.90
1123;DHT22;548;48.778;9.252;2023-08-08T00:41:17;14.80;99.90
1123;DHT22;548;48.778;9.252;2023-08-08T00:43:45;14.70;99.90
1123;DHT22;548;48.778;9.252;2023-08-08T00:46:12;14.70;99.90
1123;DHT22;548;48.778;9.252;2023-08-08T00:48:38;14.70;99.90
1123;DHT22;548;48.778;9.252;2023-08-08T00:51:05;14.70;99.90
1123;DHT22;548;48.778;9.252;2023-08-08T00:53:32;14.70;99.90
1123;DHT22;548;48.778;9.252;2023-08-08T00:55:59;14.80;99.90
1123;DHT22;548;48.778;9.252;2023-08-08T00:58:26;14.70;99.90
1123;DHT22;548;48.778;9.252;2023-08-08T01:00:55;14.80;99.90
1123;DHT22;548;48.778;9.252;2023-08-08T01:03:25;14.70;99.90
1123;DHT22;548;48.778;9.252;2023-08-08T01:05:58;14.80;99.90
1123;DHT22;548;48.778;9.252;2023-08-08T01:08:33;14.80;99.90
1123;DHT22;548;48.778;9.252;2023-08-08T01:11:02;14.80;99.90
1123;DHT22;548;48.778;9.252;2023-08-08T01:13:30;14.80;99.90
1123;DHT22;548;48.778;9.252;2023-08-08T01:15:59;14.80;99.90
1123;DHT22;548;48.778;9.252;2023-08-08T01:18:27;14.80;99.90
1123;DHT22;548;48.778;9.252;2023-08-08T01:20:54;14.80;99.90
1123;DHT22;548;48.778;9.252;2023-08-08T01:23:26;14.80;99.90
1123;DHT22;548;48.778;9.252;2023-08-08T01:25:57;14.80;99.90
1123;DHT22;548;48.778;9.252;2023-08-08T01:28:24;14.80;99.90
1123;DHT22;548;48.778;9.252;2023-08-08T01:30:51;14.80;99.90
1123;DHT22;548;48.778;9.252;2023-08-08T01:33:19;14.80;99.90
1123;DHT22;548;48.778;9.252;2023-08-08T01:35:52;14.80;99.90
1123;DHT22;548;48.778;9.252;2023-08-08T01:38:25;14.80;99.90
1123;DHT22;548;48.778;9.252;2023-08-08T01:40:56;14.80;99.90
1123;DHT22;548;48.778;9.252;2023-08-08T01:43:24;14.80;99.90
1123;DHT22;548;48.778;9.252;2023-08-08T01:45:51;14.80;99.90
1123;DHT22;548;48.778;9.252;2023-08-08T01:48:18;14.80;99.90
1123;DHT22;548;48.778;9.252;2023-08-08T01:50:45;14.80;99.90
1123;DHT22;548;48.778;9.252;2023-08-08T01:53:20;14.70;99.90
1123;DHT22;548;48.778;9.252;2023-08-08T01:55:47;14.70;99.90
1123;DHT22;548;48.778;9.252;2023-08-08T01:58:15;14.80;99.90
1123;DHT22;548;48.778;9.252;2023-08-08T02:00:42;14.80;99.90
1123;DHT22;548;48.778;9.252;2023-08-08T02:03:10;14.80;99.90
1123;DHT22;548;48.778;9.252;2023-08-08T02:05:37;14.80;99.90
1123;DHT22;548;48.778;9.252;2023-08-08T02:08:04;14.80;99.90
1123;DHT22;548;48.778;9.252;2023-08-08T02:10:31;14.80;99.90
1123;DHT22;548;48.778;9.252;2023-08-08T02:12:58;14.90;99.90
1123;DHT22;548;48.778;9.252;2023-08-08T02:15:26;14.80;99.90
1123;DHT22;548;48.778;9.252;2023-08-08T02:17:52;14.90;99.90
1123;DHT22;548;48.778;9.252;2023-08-08T02:20:19;14.80;99.90
1123;DHT22;548;48.778;9.252;2023-08-08T02:22:46;14.80;99.90
1123;DHT22;548;48.778;9.252;2023-08-08T02:25:12;14.80;99.90
1123;DHT22;548;48.778;9.252;2023-08-08T02:27:39;14.80;99.90
1123;DHT22;548;48.778;9.252;2023-08-08T02:30:07;14.80;99.90
1123;DHT22;548;48.778;9.252;2023-08-08T02:32:35;14.90;99.90
1123;DHT22;548;48.778;9.252;2023-08-08T02:35:02;14.90;99.90
1123;DHT22;548;48.778;9.252;2023-08-08T02:37:28;14.90;99.90
1123;DHT22;548;48.778;9.252;2023-08-08T02:39:55;14.90;99.90
1123;DHT22;548;48.778;9.252;2023-08-08T02:42:22;14.90;99.90
1123;DHT22;548;48.778;9.252;2023-08-08T02:44:48;14.90;99.90
1123;DHT22;548;48.778;9.252;2023-08-08T02:47:15;14.80;99.90
1123;DHT22;548;48.778;9.252;2023-08-08T02:49:43;14.90;99.90
1123;DHT22;548;48.778;9.252;2023-08-08T02:52:10;15.10;99.90
1123;DHT22;548;48.778;9.252;2023-08-08T02:54:36;15.20;99.90
1123;DHT22;548;48.778;9.252;2023-08-08T02:57:04;15.20;99.90
1123;DHT22;548;48.778;9.252;2023-08-08T02:59:31;15.30;99.90
1123;DHT22;548;48.778;9.252;2023-08-08T03:01:57;15.20;99.90
1123;DHT22;548;48.778;9.252;2023-08-08T03:04:24;15.20;99.90
1123;DHT22;548;48.778;9.252;2023-08-08T03:06:52;15.10;99.90
1123;DHT22;548;48.778;9.252;2023-08-08T03:09:19;15.00;99.90
1123;DHT22;548;48.778;9.252;2023-08-08T03:11:45;15.00;99.90
1123;DHT22;548;48.778;9.252;2023-08-08T03:14:12;14.90;99.90
1123;DHT22;548;48.778;9.252;2023-08-08T03:16:39;14.90;99.90
1123;DHT22;548;48.778;9.252;2023-08-08T03:19:06;14.80;99.90
1123;DHT22;548;48.778;9.252;2023-08-08T03:21:32;14.80;99.90
1123;DHT22;548;48.778;9.252;2023-08-08T03:24:00;14.70;99.90
1123;DHT22;548;48.778;9.252;2023-08-08T03:26:27;14.70;99.90
1123;DHT22;548;48.778;9.252;2023-08-08T03:28:54;14.70;99.90
1123;DHT22;548;48.778;9.252;2023-08-08T03:31:21;14.70;99.90
1123;DHT22;548;48.778;9.252;2023-08-08T03:33:47;14.60;99.90
1123;DHT22;548;48.778;9.252;2023-08-08T03:36:14;14.70;99.90
1123;DHT22;548;48.778;9.252;2023-08-08T03:38:41;14.70;99.90
1123;DHT22;548;48.778;9.252;2023-08-08T03:41:11;14.70;99.90
1123;DHT22;548;48.778;9.252;2023-08-08T03:43:38;14.70;99.90
1123;DHT22;548;48.778;9.252;2023-08-08T03:46:05;14.70;99.90
1123;DHT22;548;48.778;9.252;2023-08-08T03:48:32;14.70;99.90
1123;DHT22;548;48.778;9.252;2023-08-08T03:50:59;14.80;99.90
1123;DHT22;548;48.778;9.252;2023-08-08T03:53:25;14.80;99.90
1123;DHT22;548;48.778;9.252;2023-08-08T03:59:02;14.80;99.90
1123;DHT22;548;48.778;9.252;2023-08-08T04:01:29;14.80;99.90
1123;DHT22;548;48.778;9.252;2023-08-08T04:03:55;14.90;99.90
1123;DHT22;548;48.778;9.252;2023-08-08T04:06:22;14.90;99.90
1123;DHT22;548;48.778;9.252;2023-08-08T04:08:49;14.90;99.90
1123;DHT22;548;48.778;9.252;2023-08-08T04:11:15;15.00;99.90
1123;DHT22;548;48.778;9.252;2023-08-08T04:13:42;15.00;99.90
1123;DHT22;548;48.778;9.252;2023-08-08T04:16:10;15.00;99.90
1123;DHT22;548;48.778;9.252;2023-08-08T04:18:37;15.00;99.90
1123;DHT22;548;48.778;9.252;2023-08-08T04:21:03;15.10;99.90
1123;DHT22;548;48.778;9.252;2023-08-08T04:23:30;15.10;99.90
1123;DHT22;548;48.778;9.252;2023-08-08T04:25:57;15.10;99.90
1123;DHT22;548;48.778;9.252;2023-08-08T04:28:24;15.20;99.90
1123;DHT22;548;48.778;9.252;2023-08-08T04:30:50;15.30;99.90
1123;DHT22;548;48.778;9.252;2023-08-08T04:33:18;15.30;99.90
1123;DHT22;548;48.778;9.252;2023-08-08T04:35:45;15.30;99.90
1123;DHT22;548;48.778;9.252;2023-08-08T04:38:13;15.40;99.90
1123;DHT22;548;48.778;9.252;2023-08-08T04:40:40;15.40;99.90
1123;DHT22;548;48.778;9.252;2023-08-08T04:43:07;15.40;99.90
1123;DHT22;548;48.778;9.252;2023-08-08T04:45:34;15.50;99.90
1123;DHT22;548;48.778;9.252;2023-08-08T04:48:00;15.50;99.90
1123;DHT22;548;48.778;9.252;2023-08-08T04:50:28;15.50;99.90
1123;DHT22;548;48.778;9.252;2023-08-08T04:52:55;15.60;99.90
1123;DHT22;548;48.778;9.252;2023-08-08T04:55:22;15.60;99.90
1123;DHT22;548;48.778;9.252;2023-08-08T04:57:48;15.70;99.90
1123;DHT22;548;48.778;9.252;2023-08-08T05:00:16;15.80;99.90
1123;DHT22;548;48.778;9.252;2023-08-08T05:02:43;16.10;99.90
1123;DHT22;548;48.778;9.252;2023-08-08T05:05:09;16.30;99.90
1123;DHT22;548;48.778;9.252;2023-08-08T05:07:37;16.50;99.90
1123;DHT22;548;48.778;9.252;2023-08-08T05:10:05;16.60;99.90
1123;DHT22;548;48.778;9.252;2023-08-08T05:12:32;16.70;99.90
1123;DHT22;548;48.778;9.252;2023-08-08T05:14:58;16.70;99.90
1123;DHT22;548;48.778;9.252;2023-08-08T05:17:25;16.50;99.90
1123;DHT22;548;48.778;9.252;2023-08-08T05:19:52;16.50;99.90
1123;DHT22;548;48.778;9.252;2023-08-08T05:22:19;16.70;99.90
1123;DHT22;548;48.778;9.252;2023-08-08T05:24:47;17.00;99.90
1123;DHT22;548;48.778;9.252;2023-08-08T05:27:13;17.20;99.90
1123;DHT22;548;48.778;9.252;2023-08-08T05:29:40;17.40;99.90
1123;DHT22;548;48.778;9.252;2023-08-08T05:32:07;17.60;99.90
1123;DHT22;548;48.778;9.252;2023-08-08T05:34:34;17.80;99.90
1123;DHT22;548;48.778;9.252;2023-08-08T05:37:01;18.10;99.90
1123;DHT22;548;48.778;9.252;2023-08-08T05:39:29;18.30;99.90
1123;DHT22;548;48.778;9.252;2023-08-08T05:41:57;18.10;99.90
1123;DHT22;548;48.778;9.252;2023-08-08T05:44:24;18.00;99.90
1123;DHT22;548;48.778;9.252;2023-08-08T05:46:51;18.00;99.90
1123;DHT22;548;48.778;9.252;2023-08-08T05:49:18;18.20;99.90
1123;DHT22;548;48.778;9.252;2023-08-08T05:51:45;18.50;99.90
1123;DHT22;548;48.778;9.252;2023-08-08T05:54:11;18.50;99.90
1123;DHT22;548;48.778;9.252;2023-08-08T05:56:38;18.60;99.90
1123;DHT22;548;48.778;9.252;2023-08-08T05:59:06;18.80;99.90
1123;DHT22;548;48.778;9.252;2023-08-08T06:01:33;18.80;99.90
1123;DHT22;548;48.778;9.252;2023-08-08T06:04:01;18.90;99.90
1123;DHT22;548;48.778;9.252;2023-08-08T06:06:29;19.00;99.90
1123;DHT22;548;48.778;9.252;2023-08-08T06:08:55;19.10;99.90
1123;DHT22;548;48.778;9.252;2023-08-08T06:11:22;19.40;99.90
1123;DHT22;548;48.778;9.252;2023-08-08T06:13:49;19.50;99.90
1123;DHT22;548;48.778;9.252;2023-08-08T06:16:17;19.60;99.90
1123;DHT22;548;48.778;9.252;2023-08-08T06:18:44;19.80;99.90
1123;DHT22;548;48.778;9.252;2023-08-08T06:21:10;19.70;99.90
1123;DHT22;548;48.778;9.252;2023-08-08T06:23:37;19.70;99.90
1123;DHT22;548;48.778;9.252;2023-08-08T06:26:04;19.80;99.90
1123;DHT22;548;48.778;9.252;2023-08-08T06:28:31;19.80;99.90
1123;DHT22;548;48.778;9.252;2023-08-08T06:30:58;19.90;99.90
1123;DHT22;548;48.778;9.252;2023-08-08T06:33:26;20.00;99.90
1123;DHT22;548;48.778;9.252;2023-08-08T06:35:55;20.40;99.90
1123;DHT22;548;48.778;9.252;2023-08-08T06:38:21;20.80;99.40
1123;DHT22;548;48.778;9.252;2023-08-08T06:40:48;20.80;98.90
1123;DHT22;548;48.778;9.252;2023-08-08T06:43:15;20.90;99.10
1123;DHT22;548;48.778;9.252;2023-08-08T06:45:42;21.60;98.00
1123;DHT22;548;48.778;9.252;2023-08-08T06:48:09;22.20;96.50
1123;DHT22;548;48.778;9.252;2023-08-08T06:50:37;22.20;95.80
1123;DHT22;548;48.778;9.252;2023-08-08T06:53:04;21.90;95.80
1123;DHT22;548;48.778;9.252;2023-08-08T06:55:31;21.70;96.50
1123;DHT22;548;48.778;9.252;2023-08-08T06:57:57;21.80;96.30
1123;DHT22;548;48.778;9.252;2023-08-08T07:00:24;22.40;95.30
1123;DHT22;548;48.778;9.252;2023-08-08T07:02:52;23.00;94.20
1123;DHT22;548;48.778;9.252;2023-08-08T07:05:19;23.40;93.50
1123;DHT22;548;48.778;9.252;2023-08-08T07:07:49;23.90;92.30
1123;DHT22;548;48.778;9.252;2023-08-08T07:10:16;24.00;92.20
1123;DHT22;548;48.778;9.252;2023-08-08T07:12:42;23.70;92.20
1123;DHT22;548;48.778;9.252;2023-08-08T07:15:09;23.70;92.40
1123;DHT22;548;48.778;9.252;2023-08-08T07:17:36;24.20;91.40
1123;DHT22;548;48.778;9.252;2023-08-08T07:20:04;24.40;91.10
1123;DHT22;548;48.778;9.252;2023-08-08T07:22:31;24.60;90.80
1123;DHT22;548;48.778;9.252;2023-08-08T07:24:59;25.00;90.00
1123;DHT22;548;48.778;9.252;2023-08-08T07:27:26;24.70;89.00
1123;DHT22;548;48.778;9.252;2023-08-08T07:29:53;25.00;89.20
1123;DHT22;548;48.778;9.252;2023-08-08T07:32:20;25.30;88.30
1123;DHT22;548;48.778;9.252;2023-08-08T07:34:46;25.50;88.00
1123;DHT22;548;48.778;9.252;2023-08-08T07:37:14;25.90;86.60
1123;DHT22;548;48.778;9.252;2023-08-08T07:39:40;25.70;84.60
1123;DHT22;548;48.778;9.252;2023-08-08T07:42:08;25.60;86.10
1123;DHT22;548;48.778;9.252;2023-08-08T07:44:35;26.40;83.60
1123;DHT22;548;48.778;9.252;2023-08-08T07:47:04;27.20;80.70
1123;DHT22;548;48.778;9.252;2023-08-08T07:49:31;27.90;78.40
1123;DHT22;548;48.778;9.252;2023-08-08T07:51:57;28.50;74.20
1123;DHT22;548;48.778;9.252;2023-08-08T07:54:24;28.80;74.20
1123;DHT22;548;48.778;9.252;2023-08-08T07:56:51;29.20;70.60
1123;DHT22;548;48.778;9.252;2023-08-08T07:59:19;28.90;71.70
1123;DHT22;548;48.778;9.252;2023-08-08T08:01:45;29.10;68.60
1123;DHT22;548;48.778;9.252;2023-08-08T08:04:12;28.40;69.20
1123;DHT22;548;48.778;9.252;2023-08-08T08:06:39;27.70;72.20
1123;DHT22;548;48.778;9.252;2023-08-08T08:09:06;27.50;71.80
1123;DHT22;548;48.778;9.252;2023-08-08T08:11:33;27.30;71.90
1123;DHT22;548;48.778;9.252;2023-08-08T08:14:00;26.20;73.50
1123;DHT22;548;48.778;9.252;2023-08-08T08:16:28;25.90;75.00
1123;DHT22;548;48.778;9.252;2023-08-08T08:18:55;25.70;76.30
1123;DHT22;548;48.778;9.252;2023-08-08T08:21:21;25.90;76.80
1123;DHT22;548;48.778;9.252;2023-08-08T08:23:48;26.40;74.40
1123;DHT22;548;48.778;9.252;2023-08-08T08:26:15;26.40;73.50
1123;DHT22;548;48.778;9.252;2023-08-08T08:28:42;26.00;75.80
1123;DHT22;548;48.778;9.252;2023-08-08T08:31:08;26.00;75.50
1123;DHT22;548;48.778;9.252;2023-08-08T08:33:36;25.90;74.30
1123;DHT22;548;48.778;9.252;2023-08-08T08:36:03;25.50;75.40
1123;DHT22;548;48.778;9.252;2023-08-08T08:38:30;25.60;75.00
1123;DHT22;548;48.778;9.252;2023-08-08T08:40:57;25.90;75.10
1123;DHT22;548;48.778;9.252;2023-08-08T08:43:24;26.10;74.10
1123;DHT22;548;48.778;9.252;2023-08-08T08:45:52;26.20;73.80
1123;DHT22;548;48.778;9.252;2023-08-08T08:48:20;25.80;74.50
1123;DHT22;548;48.778;9.252;2023-08-08T08:50:49;25.70;76.10
1123;DHT22;548;48.778;9.252;2023-08-08T08:53:16;25.40;76.40
1123;DHT22;548;48.778;9.252;2023-08-08T08:55:43;25.60;77.50
1123;DHT22;548;48.778;9.252;2023-08-08T08:58:11;26.20;75.70
1123;DHT22;548;48.778;9.252;2023-08-08T09:00:40;26.10;74.00
1123;DHT22;548;48.778;9.252;2023-08-08T09:03:07;26.30;74.80
1123;DHT22;548;48.778;9.252;2023-08-08T09:05:34;26.90;73.80
1123;DHT22;548;48.778;9.252;2023-08-08T09:08:02;27.40;72.80
1123;DHT22;548;48.778;9.252;2023-08-08T09:10:30;28.10;71.90
1123;DHT22;548;48.778;9.252;2023-08-08T09:12:58;29.20;67.50
1123;DHT22;548;48.778;9.252;2023-08-08T09:15:25;30.30;64.60
1123;DHT22;548;48.778;9.252;2023-08-08T09:17:52;30.70;63.50
1123;DHT22;548;48.778;9.252;2023-08-08T09:20:19;30.80;61.20
1123;DHT22;548;48.778;9.252;2023-08-08T09:22:46;30.10;60.20
1123;DHT22;548;48.778;9.252;2023-08-08T09:25:14;30.00;62.00
1123;DHT22;548;48.778;9.252;2023-08-08T09:27:41;29.30;61.90
1123;DHT22;548;48.778;9.252;2023-08-08T09:30:09;28.50;65.50
1123;DHT22;548;48.778;9.252;2023-08-08T09:32:37;28.30;64.50
1123;DHT22;548;48.778;9.252;2023-08-08T09:35:04;28.00;66.00
1123;DHT22;548;48.778;9.252;2023-08-08T09:37:34;28.10;65.60
1123;DHT22;548;48.778;9.252;2023-08-08T09:40:04;28.70;65.10
1123;DHT22;548;48.778;9.252;2023-08-08T09:42:35;28.40;64.80
1123;DHT22;548;48.778;9.252;2023-08-08T09:45:02;27.70;67.10
1123;DHT22;548;48.778;9.252;2023-08-08T09:47:28;28.20;65.80
1123;DHT22;548;48.778;9.252;2023-08-08T09:49:58;28.80;64.20
1123;DHT22;548;48.778;9.252;2023-08-08T09:52:26;29.80;60.10
1123;DHT22;548;48.778;9.252;2023-08-08T09:54:54;29.70;59.70
1123;DHT22;548;48.778;9.252;2023-08-08T09:57:21;29.40;59.70
1123;DHT22;548;48.778;9.252;2023-08-08T09:59:51;29.40;59.60
1123;DHT22;548;48.778;9.252;2023-08-08T10:02:18;29.80;60.20
1123;DHT22;548;48.778;9.252;2023-08-08T10:04:46;30.70;58.00
1123;DHT22;548;48.778;9.252;2023-08-08T10:07:13;31.70;56.00
1123;DHT22;548;48.778;9.252;2023-08-08T10:09:40;31.90;55.60
1123;DHT22;548;48.778;9.252;2023-08-08T10:12:08;31.80;54.90
1123;DHT22;548;48.778;9.252;2023-08-08T10:14:36;31.40;55.40
1123;DHT22;548;48.778;9.252;2023-08-08T10:17:05;30.70;55.50
1123;DHT22;548;48.778;9.252;2023-08-08T10:19:32;30.60;56.40
1123;DHT22;548;48.778;9.252;2023-08-08T10:22:02;31.40;54.80
1123;DHT22;548;48.778;9.252;2023-08-08T10:24:33;31.10;53.70
1123;DHT22;548;48.778;9.252;2023-08-08T10:27:00;31.20;54.20
1123;DHT22;548;48.778;9.252;2023-08-08T10:29:29;31.20;53.70
1123;DHT22;548;48.778;9.252;2023-08-08T10:31:59;30.40;54.50
1123;DHT22;548;48.778;9.252;2023-08-08T10:34:36;30.30;54.30
1123;DHT22;548;48.778;9.252;2023-08-08T10:37:05;30.40;54.30
1123;DHT22;548;48.778;9.252;2023-08-08T10:39:32;31.10;51.50
1123;DHT22;548;48.778;9.252;2023-08-08T10:42:02;31.00;50.30
1123;DHT22;548;48.778;9.252;2023-08-08T10:44:29;30.90;51.20
1123;DHT22;548;48.778;9.252;2023-08-08T10:46:56;31.30;51.00
1123;DHT22;548;48.778;9.252;2023-08-08T10:49:23;32.20;49.30
1123;DHT22;548;48.778;9.252;2023-08-08T10:51:51;32.60;49.80
1123;DHT22;548;48.778;9.252;2023-08-08T10:54:20;33.80;48.00
1123;DHT22;548;48.778;9.252;2023-08-08T10:56:49;33.40;46.20
1123;DHT22;548;48.778;9.252;2023-08-08T10:59:20;31.70;48.10
1123;DHT22;548;48.778;9.252;2023-08-08T11:01:48;30.30;49.50
1123;DHT22;548;48.778;9.252;2023-08-08T11:04:17;29.00;50.30
1123;DHT22;548;48.778;9.252;2023-08-08T11:06:44;29.00;48.40
1123;DHT22;548;48.778;9.252;2023-08-08T11:09:14;29.70;47.70
1123;DHT22;548;48.778;9.252;2023-08-08T11:11:42;30.40;47.50
1123;DHT22;548;48.778;9.252;2023-08-08T11:14:11;31.00;46.80
1123;DHT22;548;48.778;9.252;2023-08-08T11:16:38;31.40;46.00
1123;DHT22;548;48.778;9.252;2023-08-08T11:19:05;31.10;45.70
1123;DHT22;548;48.778;9.252;2023-08-08T11:21:34;29.90;46.10
1123;DHT22;548;48.778;9.252;2023-08-08T11:24:01;29.40;47.70
1123;DHT22;548;48.778;9.252;2023-08-08T11:26:30;29.30;49.00
1123;DHT22;548;48.778;9.252;2023-08-08T11:28:58;29.10;49.50
1123;DHT22;548;48.778;9.252;2023-08-08T11:31:25;29.00;48.50
1123;DHT22;548;48.778;9.252;2023-08-08T11:33:53;28.60;49.40
1123;DHT22;548;48.778;9.252;2023-08-08T11:36:20;28.30;49.10
1123;DHT22;548;48.778;9.252;2023-08-08T11:38:48;28.30;49.60
1123;DHT22;548;48.778;9.252;2023-08-08T11:41:16;27.80;51.60
1123;DHT22;548;48.778;9.252;2023-08-08T11:43:45;29.20;51.30
1123;DHT22;548;48.778;9.252;2023-08-08T11:49:28;30.30;46.10
1123;DHT22;548;48.778;9.252;2023-08-08T11:51:56;30.80;44.00
1123;DHT22;548;48.778;9.252;2023-08-08T11:54:26;30.90;44.30
1123;DHT22;548;48.778;9.252;2023-08-08T11:56:53;30.40;45.30
1123;DHT22;548;48.778;9.252;2023-08-08T11:59:21;29.70;46.70
1123;DHT22;548;48.778;9.252;2023-08-08T12:01:49;29.70;47.80
1123;DHT22;548;48.778;9.252;2023-08-08T12:04:16;28.90;48.70
1123;DHT22;548;48.778;9.252;2023-08-08T12:06:46;28.50;49.60
1123;DHT22;548;48.778;9.252;2023-08-08T12:09:13;28.30;50.90
1123;DHT22;548;48.778;9.252;2023-08-08T12:11:40;28.90;51.20
1123;DHT22;548;48.778;9.252;2023-08-08T12:14:08;30.10;48.10
1123;DHT22;548;48.778;9.252;2023-08-08T12:16:37;30.50;47.40
1123;DHT22;548;48.778;9.252;2023-08-08T12:19:07;30.80;45.70
1123;DHT22;548;48.778;9.252;2023-08-08T12:21:39;30.20;46.40
1123;DHT22;548;48.778;9.252;2023-08-08T12:24:07;29.40;48.50
1123;DHT22;548;48.778;9.252;2023-08-08T12:26:33;29.50;48.80
1123;DHT22;548;48.778;9.252;2023-08-08T12:29:00;30.50;47.00
1123;DHT22;548;48.778;9.252;2023-08-08T12:31:27;30.70;45.40
1123;DHT22;548;48.778;9.252;2023-08-08T12:33:55;31.00;45.20
1123;DHT22;548;48.778;9.252;2023-08-08T12:36:22;30.60;45.70
1123;DHT22;548;48.778;9.252;2023-08-08T12:38:48;30.10;45.90
1123;DHT22;548;48.778;9.252;2023-08-08T12:41:15;29.80;46.30
1123;DHT22;548;48.778;9.252;2023-08-08T12:43:42;29.20;46.80
1123;DHT22;548;48.778;9.252;2023-08-08T12:46:09;28.90;47.60
1123;DHT22;548;48.778;9.252;2023-08-08T12:48:35;29.00;48.60
1123;DHT22;548;48.778;9.252;2023-08-08T12:51:03;29.70;48.20
1123;DHT22;548;48.778;9.252;2023-08-08T12:53:30;29.20;49.30
1123;DHT22;548;48.778;9.252;2023-08-08T12:55:57;29.40;49.50
1123;DHT22;548;48.778;9.252;2023-08-08T12:58:24;29.80;49.20
1123;DHT22;548;48.778;9.252;2023-08-08T13:00:51;30.10;48.40
1123;DHT22;548;48.778;9.252;2023-08-08T13:03:18;30.70;47.90
1123;DHT22;548;48.778;9.252;2023-08-08T13:05:45;31.50;46.70
1123;DHT22;548;48.778;9.252;2023-08-08T13:08:14;31.60;46.00
1123;DHT22;548;48.778;9.252;2023-08-08T13:10:40;31.00;46.90
1123;DHT22;548;48.778;9.252;2023-08-08T13:13:07;30.30;47.50
1123;DHT22;548;48.778;9.252;2023-08-08T13:15:36;29.60;48.20
1123;DHT22;548;48.778;9.252;2023-08-08T13:18:04;29.00;49.10
1123;DHT22;548;48.778;9.252;2023-08-08T13:20:35;28.70;49.60
1123;DHT22;548;48.778;9.252;2023-08-08T13:23:04;27.90;50.80
1123;DHT22;548;48.778;9.252;2023-08-08T13:25:32;27.50;51.40
1123;DHT22;548;48.778;9.252;2023-08-08T13:28:00;27.00;52.90
1123;DHT22;548;48.778;9.252;2023-08-08T13:30:28;26.90;53.50
1123;DHT22;548;48.778;9.252;2023-08-08T13:32:55;26.70;54.00
1123;DHT22;548;48.778;9.252;2023-08-08T13:35:22;26.40;55.50
1123;DHT22;548;48.778;9.252;2023-08-08T13:37:49;26.70;56.00
1123;DHT22;548;48.778;9.252;2023-08-08T13:40:17;27.10;55.00
1123;DHT22;548;48.778;9.252;2023-08-08T13:42:45;27.30;55.20
1123;DHT22;548;48.778;9.252;2023-08-08T13:45:13;27.80;54.70
1123;DHT22;548;48.778;9.252;2023-08-08T13:47:40;28.30;54.50
1123;DHT22;548;48.778;9.252;2023-08-08T13:50:07;28.80;53.30
1123;DHT22;548;48.778;9.252;2023-08-08T13:52:34;29.30;51.50
1123;DHT22;548;48.778;9.252;2023-08-08T13:55:10;29.60;51.00
1123;DHT22;548;48.778;9.252;2023-08-08T13:58:05;29.80;50.40
1123;DHT22;548;48.778;9.252;2023-08-08T14:00:32;29.30;51.90
1123;DHT22;548;48.778;9.252;2023-08-08T14:03:00;29.50;52.50
1123;DHT22;548;48.778;9.252;2023-08-08T14:05:27;29.90;51.20
1123;DHT22;548;48.778;9.252;2023-08-08T14:07:54;29.70;51.90
1123;DHT22;548;48.778;9.252;2023-08-08T14:10:21;30.20;51.70
1123;DHT22;548;48.778;9.252;2023-08-08T14:12:47;30.20;50.90
1123;DHT22;548;48.778;9.252;2023-08-08T14:15:15;30.50;49.90
1123;DHT22;548;48.778;9.252;2023-08-08T14:17:42;29.80;50.40
1123;DHT22;548;48.778;9.252;2023-08-08T14:20:10;28.80;51.10
1123;DHT22;548;48.778;9.252;2023-08-08T14:22:43;28.10;52.40
1123;DHT22;548;48.778;9.252;2023-08-08T14:25:10;27.60;52.50
1123;DHT22;548;48.778;9.252;2023-08-08T14:27:39;26.70;53.70
1123;DHT22;548;48.778;9.252;2023-08-08T14:30:06;26.10;55.30
1123;DHT22;548;48.778;9.252;2023-08-08T14:32:35;26.50;55.30
1123;DHT22;548;48.778;9.252;2023-08-08T14:35:02;26.50;55.10
1123;DHT22;548;48.778;9.252;2023-08-08T14:37:30;26.00;55.40
1123;DHT22;548;48.778;9.252;2023-08-08T14:39:57;25.60;57.50
1123;DHT22;548;48.778;9.252;2023-08-08T14:42:24;25.40;57.80
1123;DHT22;548;48.778;9.252;2023-08-08T14:44:52;25.30;58.70
1123;DHT22;548;48.778;9.252;2023-08-08T14:47:28;25.30;58.60
1123;DHT22;548;48.778;9.252;2023-08-08T14:49:56;25.10;59.10
1123;DHT22;548;48.778;9.252;2023-08-08T14:52:25;24.90;59.70
1123;DHT22;548;48.778;9.252;2023-08-08T14:54:53;24.90;59.90
1123;DHT22;548;48.778;9.252;2023-08-08T14:57:23;24.80;60.50
1123;DHT22;548;48.778;9.252;2023-08-08T14:59:52;24.70;61.20
1123;DHT22;548;48.778;9.252;2023-08-08T15:02:19;24.80;62.10
1123;DHT22;548;48.778;9.252;2023-08-08T15:04:46;24.90;62.10
1123;DHT22;548;48.778;9.252;2023-08-08T15:07:17;25.10;62.10
1123;DHT22;548;48.778;9.252;2023-08-08T15:09:44;25.20;61.70
1123;DHT22;548;48.778;9.252;2023-08-08T15:12:16;25.40;61.90
1123;DHT22;548;48.778;9.252;2023-08-08T15:14:46;25.60;61.80
1123;DHT22;548;48.778;9.252;2023-08-08T15:17:14;25.80;62.10
1123;DHT22;548;48.778;9.252;2023-08-08T15:19:41;25.70;61.60
1123;DHT22;548;48.778;9.252;2023-08-08T15:22:10;25.50;61.40
1123;DHT22;548;48.778;9.252;2023-08-08T15:24:39;25.40;61.60
1123;DHT22;548;48.778;9.252;2023-08-08T15:27:06;25.00;62.60
1123;DHT22;548;48.778;9.252;2023-08-08T15:29:33;24.70;64.10
1123;DHT22;548;48.778;9.252;2023-08-08T15:31:59;24.30;64.80
1123;DHT22;548;48.778;9.252;2023-08-08T15:34:28;24.40;65.40
1123;DHT22;548;48.778;9.252;2023-08-08T15:36:55;24.70;65.10
1123;DHT22;548;48.778;9.252;2023-08-08T15:39:24;25.00;64.00
1123;DHT22;548;48.778;9.252;2023-08-08T15:41:58;25.10;63.10
1123;DHT22;548;48.778;9.252;2023-08-08T15:44:25;25.30;63.10
1123;DHT22;548;48.778;9.252;2023-08-08T15:46:54;25.30;63.20
1123;DHT22;548;48.778;9.252;2023-08-08T15:49:21;25.10;63.70
1123;DHT22;548;48.778;9.252;2023-08-08T15:51:48;25.30;64.10
1123;DHT22;548;48.778;9.252;2023-08-08T15:54:15;25.20;64.10
1123;DHT22;548;48.778;9.252;2023-08-08T15:56:42;25.00;65.00
1123;DHT22;548;48.778;9.252;2023-08-08T15:59:10;24.50;66.00
1123;DHT22;548;48.778;9.252;2023-08-08T16:01:38;24.30;66.20
1123;DHT22;548;48.778;9.252;2023-08-08T16:04:04;24.00;67.00
1123;DHT22;548;48.778;9.252;2023-08-08T16:06:31;23.80;67.70
1123;DHT22;548;48.778;9.252;2023-08-08T16:08:58;23.80;68.40
1123;DHT22;548;48.778;9.252;2023-08-08T16:11:25;23.90;68.80
1123;DHT22;548;48.778;9.252;2023-08-08T16:13:54;24.20;69.20
1123;DHT22;548;48.778;9.252;2023-08-08T16:16:22;24.10;68.70
1123;DHT22;548;48.778;9.252;2023-08-08T16:18:49;24.00;68.80
1123;DHT22;548;48.778;9.252;2023-08-08T16:21:15;24.10;69.00
1123;DHT22;548;48.778;9.252;2023-08-08T16:23:44;24.30;68.70
1123;DHT22;548;48.778;9.252;2023-08-08T16:26:11;24.40;68.60